sensor_id;sensor_type;location;lat;lon;timestamp;pressure;altitude;pressure_sealevel;temperature;humidity
19526;BME280;9907;42.676;26.348;2023-07-13T00:00:31;98949.47;;;25.15;78.19
19526;BME280;9907;42.676;26.348;2023-07-13T00:02:57;98936.63;;;25.16;79.39
19526;BME280;9907;42.676;26.348;2023-07-13T00:05:23;98935.66;;;25.10;79.32
19526;BME280;9907;42.676;26.348;2023-07-13T00:07:51;98934.75;;;25.16;79.11
19526;BME280;9907;42.676;26.348;2023-07-13T00:10:17;98932.38;;;25.20;78.31
19526;BME280;9907;42.676;26.348;2023-07-13T00:12:43;98938.81;;;24.96;80.25
19526;BME280;9907;42.676;26.348;2023-07-13T00:15:15;98930.94;;;24.88;80.47
19526;BME280;9907;42.676;26.348;2023-07-13T00:17:42;98926.16;;;24.83;80.88
19526;BME280;9907;42.676;26.348;2023-07-13T00:20:10;98932.03;;;24.98;79.82
19526;BME280;9907;42.676;26.348;2023-07-13T00:22:36;98926.25;;;25.06;80.05
19526;BME280;9907;42.676;26.348;2023-07-13T00:25:02;98927.09;;;25.07;79.59
19526;BME280;9907;42.676;26.348;2023-07-13T00:27:28;98924.13;;;25.08;79.70
19526;BME280;9907;42.676;26.348;2023-07-13T00:29:55;98925.78;;;25.09;79.25
19526;BME280;9907;42.676;26.348;2023-07-13T00:32:20;98924.09;;;24.97;80.61
19526;BME280;9907;42.676;26.348;2023-07-13T00:34:46;98921.47;;;25.02;80.47
19526;BME280;9907;42.676;26.348;2023-07-13T00:37:12;98920.31;;;24.98;81.28
19526;BME280;9907;42.676;26.348;2023-07-13T00:39:38;98913.78;;;24.81;81.68
19526;BME280;9907;42.676;26.348;2023-07-13T00:42:04;98905.53;;;24.69;81.93
19526;BME280;9907;42.676;26.348;2023-07-13T00:44:31;98912.50;;;24.83;81.20
19526;BME280;9907;42.676;26.348;2023-07-13T00:46:57;98911.16;;;24.74;82.09
19526;BME280;9907;42.676;26.348;2023-07-13T00:49:25;98913.41;;;24.77;81.56
19526;BME280;9907;42.676;26.348;2023-07-13T00:51:58;98908.94;;;24.83;81.58
19526;BME280;9907;42.676;26.348;2023-07-13T00:54:29;98899.47;;;24.67;82.34
19526;BME280;9907;42.676;26.348;2023-07-13T00:56:59;98907.41;;;24.57;82.62
19526;BME280;9907;42.676;26.348;2023-07-13T00:59:26;98898.44;;;24.68;81.88
19526;BME280;9907;42.676;26.348;2023-07-13T01:01:51;98904.94;;;24.67;81.73
19526;BME280;9907;42.676;26.348;2023-07-13T01:04:18;98904.00;;;24.73;81.39
19526;BME280;9907;42.676;26.348;2023-07-13T01:06:44;98900.94;;;24.51;83.45
19526;BME280;9907;42.676;26.348;2023-07-13T01:09:12;98904.91;;;24.37;84.34
19526;BME280;9907;42.676;26.348;2023-07-13T01:11:39;98906.34;;;24.40;84.35
19526;BME280;9907;42.676;26.348;2023-07-13T01:14:05;98908.84;;;24.41;84.90
19526;BME280;9907;42.676;26.348;2023-07-13T01:16:32;98896.28;;;24.22;86.15
19526;BME280;9907;42.676;26.348;2023-07-13T01:18:57;98905.81;;;24.13;86.72
19526;BME280;9907;42.676;26.348;2023-07-13T01:21:24;98902.00;;;23.96;88.08
19526;BME280;9907;42.676;26.348;2023-07-13T01:23:51;98910.34;;;24.01;87.71
19526;BME280;9907;42.676;26.348;2023-07-13T01:26:28;98907.16;;;24.04;87.55
19526;BME280;9907;42.676;26.348;2023-07-13T01:28:54;98904.81;;;24.07;87.27
19526;BME280;9907;42.676;26.348;2023-07-13T01:31:21;98900.16;;;24.14;86.18
19526;BME280;9907;42.676;26.348;2023-07-13T01:33:47;98900.31;;;24.19;85.55
19526;BME280;9907;42.676;26.348;2023-07-13T01:36:12;98903.97;;;23.89;87.98
19526;BME280;9907;42.676;26.348;2023-07-13T01:38:38;98907.72;;;23.94;87.03
19526;BME280;9907;42.676;26.348;2023-07-13T01:41:04;98906.34;;;24.03;86.63
19526;BME280;9907;42.676;26.348;2023-07-13T01:43:30;98899.38;;;24.07;86.13
19526;BME280;9907;42.676;26.348;2023-07-13T01:45:55;98905.13;;;23.99;86.56
19526;BME280;9907;42.676;26.348;2023-07-13T01:48:21;98893.69;;;24.09;86.28
19526;BME280;9907;42.676;26.348;2023-07-13T01:50:49;98896.84;;;24.06;86.22
19526;BME280;9907;42.676;26.348;2023-07-13T01:53:15;98901.34;;;24.00;86.29
19526;BME280;9907;42.676;26.348;2023-07-13T01:55:41;98904.53;;;23.97;86.36
19526;BME280;9907;42.676;26.348;2023-07-13T01:58:06;98903.06;;;23.95;86.73
19526;BME280;9907;42.676;26.348;2023-07-13T02:00:32;98899.72;;;23.93;87.25
19526;BME280;9907;42.676;26.348;2023-07-13T02:02:58;98897.97;;;23.98;86.62
19526;BME280;9907;42.676;26.348;2023-07-13T02:05:23;98894.97;;;24.06;85.87
19526;BME280;9907;42.676;26.348;2023-07-13T02:07:49;98900.88;;;24.03;86.17
19526;BME280;9907;42.676;26.348;2023-07-13T02:10:14;98897.56;;;24.01;86.24
19526;BME280;9907;42.676;26.348;2023-07-13T02:12:41;98904.44;;;24.04;86.02
19526;BME280;9907;42.676;26.348;2023-07-13T02:15:07;98899.19;;;24.02;86.56
19526;BME280;9907;42.676;26.348;2023-07-13T02:17:33;98897.56;;;24.01;86.65
19526;BME280;9907;42.676;26.348;2023-07-13T02:19:59;98897.97;;;23.98;87.04
19526;BME280;9907;42.676;26.348;2023-07-13T02:22:24;98898.69;;;23.94;87.12
19526;BME280;9907;42.676;26.348;2023-07-13T02:24:50;98895.50;;;23.97;86.95
19526;BME280;9907;42.676;26.348;2023-07-13T02:27:15;98898.44;;;23.95;87.29
19526;BME280;9907;42.676;26.348;2023-07-13T02:29:41;98897.19;;;23.73;89.14
19526;BME280;9907;42.676;26.348;2023-07-13T02:32:07;98904.44;;;23.86;88.60
19526;BME280;9907;42.676;26.348;2023-07-13T02:34:33;98897.22;;;23.91;87.73
19526;BME280;9907;42.676;26.348;2023-07-13T02:36:59;98906.03;;;23.93;87.38
19526;BME280;9907;42.676;26.348;2023-07-13T02:39:24;98898.91;;;23.92;87.71
19526;BME280;9907;42.676;26.348;2023-07-13T02:41:52;98907.72;;;23.94;87.34
19526;BME280;9907;42.676;26.348;2023-07-13T02:44:17;98903.91;;;23.95;87.86
19526;BME280;9907;42.676;26.348;2023-07-13T02:46:43;98900.03;;;23.85;87.99
19526;BME280;9907;42.676;26.348;2023-07-13T02:49:08;98896.41;;;23.91;87.96
19526;BME280;9907;42.676;26.348;2023-07-13T02:51:34;98900.66;;;23.87;88.18
19526;BME280;9907;42.676;26.348;2023-07-13T02:54:01;98897.94;;;23.87;88.76
19526;BME280;9907;42.676;26.348;2023-07-13T02:56:28;98901.03;;;23.90;87.99
19526;BME280;9907;42.676;26.348;2023-07-13T02:58:54;98904.44;;;23.86;88.80
19526;BME280;9907;42.676;26.348;2023-07-13T03:01:21;98898.31;;;23.90;88.09
19526;BME280;9907;42.676;26.348;2023-07-13T03:03:47;98901.03;;;23.90;88.06
19526;BME280;9907;42.676;26.348;2023-07-13T03:06:13;98897.81;;;23.75;88.41
19526;BME280;9907;42.676;26.348;2023-07-13T03:08:40;98895.41;;;23.85;88.01
19526;BME280;9907;42.676;26.348;2023-07-13T03:11:08;98889.97;;;23.85;87.91
19526;BME280;9907;42.676;26.348;2023-07-13T03:13:34;98893.91;;;23.89;87.16
19526;BME280;9907;42.676;26.348;2023-07-13T03:16:00;98896.16;;;23.92;86.84
19526;BME280;9907;42.676;26.348;2023-07-13T03:18:27;98898.34;;;23.84;87.06
19526;BME280;9907;42.676;26.348;2023-07-13T03:20:53;98903.81;;;23.84;86.71
19526;BME280;9907;42.676;26.348;2023-07-13T03:23:20;98907.38;;;23.84;86.72
19526;BME280;9907;42.676;26.348;2023-07-13T03:25:46;98901.03;;;23.90;86.52
19526;BME280;9907;42.676;26.348;2023-07-13T03:28:12;98906.16;;;23.80;88.55
19526;BME280;9907;42.676;26.348;2023-07-13T03:30:39;98905.34;;;23.80;89.35
19526;BME280;9907;42.676;26.348;2023-07-13T03:33:04;98905.19;;;23.93;88.14
19526;BME280;9907;42.676;26.348;2023-07-13T03:35:30;98896.03;;;24.05;86.68
19526;BME280;9907;42.676;26.348;2023-07-13T03:38:01;98898.47;;;24.13;86.14
19526;BME280;9907;42.676;26.348;2023-07-13T03:40:28;98900.91;;;24.21;85.84
19526;BME280;9907;42.676;26.348;2023-07-13T03:42:53;98900.59;;;24.30;85.34
19526;BME280;9907;42.676;26.348;2023-07-13T03:45:19;98902.28;;;24.31;84.44
19526;BME280;9907;42.676;26.348;2023-07-13T03:47:44;98902.97;;;24.26;85.22
19526;BME280;9907;42.676;26.348;2023-07-13T03:50:10;98904.84;;;24.26;84.88
19526;BME280;9907;42.676;26.348;2023-07-13T03:52:36;98911.72;;;24.28;85.29
19526;BME280;9907;42.676;26.348;2023-07-13T03:55:02;98909.00;;;24.28;85.39
19526;BME280;9907;42.676;26.348;2023-07-13T03:57:27;98916.13;;;24.29;86.09
19526;BME280;9907;42.676;26.348;2023-07-13T03:59:53;98900.13;;;24.33;85.95
19526;BME280;9907;42.676;26.348;2023-07-13T04:02:18;98900.88;;;24.40;84.78
19526;BME280;9907;42.676;26.348;2023-07-13T04:07:09;98907.47;;;24.50;83.78
19526;BME280;9907;42.676;26.348;2023-07-13T04:09:35;98913.25;;;24.60;83.11
19526;BME280;9907;42.676;26.348;2023-07-13T04:12:01;98914.66;;;24.63;84.23
19526;BME280;9907;42.676;26.348;2023-07-13T04:14:27;98917.75;;;24.66;82.60
19526;BME280;9907;42.676;26.348;2023-07-13T04:16:52;98919.81;;;24.71;81.37
19526;BME280;9907;42.676;26.348;2023-07-13T04:19:19;98913.41;;;24.77;82.33
19526;BME280;9907;42.676;26.348;2023-07-13T04:21:45;98918.50;;;24.92;81.46
19526;BME280;9907;42.676;26.348;2023-07-13T04:24:10;98919.59;;;25.02;80.49
19526;BME280;9907;42.676;26.348;2023-07-13T04:26:36;98914.78;;;25.16;80.45
19526;BME280;9907;42.676;26.348;2023-07-13T04:29:03;98917.50;;;25.28;78.79
19526;BME280;9907;42.676;26.348;2023-07-13T04:31:29;98923.00;;;25.39;77.64
19526;BME280;9907;42.676;26.348;2023-07-13T04:33:55;98930.78;;;25.54;75.82
19526;BME280;9907;42.676;26.348;2023-07-13T04:36:21;98920.00;;;25.71;75.93
19526;BME280;9907;42.676;26.348;2023-07-13T04:38:46;98920.44;;;25.91;77.38
19526;BME280;9907;42.676;26.348;2023-07-13T04:41:12;98924.72;;;26.10;75.29
19526;BME280;9907;42.676;26.348;2023-07-13T04:43:38;98921.09;;;26.56;72.92
19526;BME280;9907;42.676;26.348;2023-07-13T04:46:06;98921.59;;;26.53;72.52
19526;BME280;9907;42.676;26.348;2023-07-13T04:48:32;98924.25;;;26.64;72.86
19526;BME280;9907;42.676;26.348;2023-07-13T04:50:58;98924.81;;;26.90;71.42
19526;BME280;9907;42.676;26.348;2023-07-13T04:53:24;98932.00;;;27.07;71.12
19526;BME280;9907;42.676;26.348;2023-07-13T04:55:50;98935.28;;;27.09;69.42
19526;BME280;9907;42.676;26.348;2023-07-13T04:58:16;98935.50;;;27.20;68.72
19526;BME280;9907;42.676;26.348;2023-07-13T05:00:42;98939.00;;;27.32;68.85
19526;BME280;9907;42.676;26.348;2023-07-13T05:03:07;98944.03;;;27.51;67.97
19526;BME280;9907;42.676;26.348;2023-07-13T05:05:33;98936.38;;;27.70;66.42
19526;BME280;9907;42.676;26.348;2023-07-13T05:07:59;98936.94;;;27.72;65.75
19526;BME280;9907;42.676;26.348;2023-07-13T05:10:25;98945.69;;;27.86;64.97
19526;BME280;9907;42.676;26.348;2023-07-13T05:12:51;98945.78;;;28.08;64.29
19526;BME280;9907;42.676;26.348;2023-07-13T05:15:16;98941.06;;;28.25;63.13
19526;BME280;9907;42.676;26.348;2023-07-13T05:17:49;98944.13;;;28.28;61.24
19526;BME280;9907;42.676;26.348;2023-07-13T05:20:15;98946.84;;;28.45;62.13
19526;BME280;9907;42.676;26.348;2023-07-13T05:22:42;98936.19;;;28.70;60.99
19526;BME280;9907;42.676;26.348;2023-07-13T05:25:08;98942.66;;;28.81;59.93
19526;BME280;9907;42.676;26.348;2023-07-13T05:27:35;98949.91;;;28.92;58.76
19526;BME280;9907;42.676;26.348;2023-07-13T05:30:02;98941.97;;;28.95;59.11
19526;BME280;9907;42.676;26.348;2023-07-13T05:32:27;98942.44;;;29.14;58.56
19526;BME280;9907;42.676;26.348;2023-07-13T05:34:53;98930.88;;;29.34;58.69
19526;BME280;9907;42.676;26.348;2023-07-13T05:37:18;98939.75;;;29.46;57.92
19526;BME280;9907;42.676;26.348;2023-07-13T05:39:44;98927.44;;;29.54;58.36
19526;BME280;9907;42.676;26.348;2023-07-13T05:42:09;98933.97;;;29.79;57.02
19526;BME280;9907;42.676;26.348;2023-07-13T05:44:35;98946.00;;;30.00;56.78
19526;BME280;9907;42.676;26.348;2023-07-13T05:47:00;98940.31;;;30.17;56.74
19526;BME280;9907;42.676;26.348;2023-07-13T05:49:26;98929.91;;;30.29;56.20
19526;BME280;9907;42.676;26.348;2023-07-13T05:51:51;98942.44;;;30.47;55.88
19526;BME280;9907;42.676;26.348;2023-07-13T05:54:17;98945.41;;;30.40;54.54
19526;BME280;9907;42.676;26.348;2023-07-13T05:56:43;98939.84;;;30.35;55.41
19526;BME280;9907;42.676;26.348;2023-07-13T05:59:08;98942.69;;;30.45;54.36
19526;BME280;9907;42.676;26.348;2023-07-13T06:01:33;98936.19;;;30.66;54.88
19526;BME280;9907;42.676;26.348;2023-07-13T06:03:59;98932.38;;;30.87;54.12
19526;BME280;9907;42.676;26.348;2023-07-13T06:06:24;98926.06;;;30.97;54.32
19526;BME280;9907;42.676;26.348;2023-07-13T06:08:50;98938.53;;;31.10;53.39
19526;BME280;9907;42.676;26.348;2023-07-13T06:11:19;98929.72;;;31.08;53.42
19526;BME280;9907;42.676;26.348;2023-07-13T06:13:45;98927.81;;;31.23;53.09
19526;BME280;9907;42.676;26.348;2023-07-13T06:16:11;98939.16;;;31.37;52.89
19526;BME280;9907;42.676;26.348;2023-07-13T06:18:37;98938.34;;;31.52;52.71
19526;BME280;9907;42.676;26.348;2023-07-13T06:21:11;98938.63;;;31.80;52.06
19526;BME280;9907;42.676;26.348;2023-07-13T06:23:36;98934.47;;;31.98;52.01
19526;BME280;9907;42.676;26.348;2023-07-13T06:26:03;98935.03;;;32.00;51.25
19526;BME280;9907;42.676;26.348;2023-07-13T06:28:29;98935.28;;;31.99;50.43
19526;BME280;9907;42.676;26.348;2023-07-13T06:30:56;98930.88;;;32.13;49.89
19526;BME280;9907;42.676;26.348;2023-07-13T06:33:22;98927.25;;;32.22;50.38
19526;BME280;9907;42.676;26.348;2023-07-13T06:35:47;98931.06;;;32.42;50.41
19526;BME280;9907;42.676;26.348;2023-07-13T06:38:13;98927.94;;;32.63;49.24
19526;BME280;9907;42.676;26.348;2023-07-13T06:40:38;98919.38;;;32.70;49.85
19526;BME280;9907;42.676;26.348;2023-07-13T06:43:04;98924.59;;;32.76;49.38
19526;BME280;9907;42.676;26.348;2023-07-13T06:45:29;98927.53;;;32.95;49.34
19526;BME280;9907;42.676;26.348;2023-07-13T06:47:55;98917.75;;;33.13;47.87
19526;BME280;9907;42.676;26.348;2023-07-13T06:50:20;98918.31;;;33.10;48.05
19526;BME280;9907;42.676;26.348;2023-07-13T06:52:45;98916.34;;;33.15;47.83
19526;BME280;9907;42.676;26.348;2023-07-13T06:55:11;98924.34;;;33.22;48.31
19526;BME280;9907;42.676;26.348;2023-07-13T06:57:36;98911.66;;;33.55;47.36
19526;BME280;9907;42.676;26.348;2023-07-13T07:00:02;98913.84;;;33.58;46.60
19526;BME280;9907;42.676;26.348;2023-07-13T07:02:28;98904.81;;;33.42;47.18
19526;BME280;9907;42.676;26.348;2023-07-13T07:04:53;98913.97;;;33.38;47.31
19526;BME280;9907;42.676;26.348;2023-07-13T07:07:19;98915.91;;;33.37;47.14
19526;BME280;9907;42.676;26.348;2023-07-13T07:09:45;98916.03;;;33.56;46.83
19526;BME280;9907;42.676;26.348;2023-07-13T07:12:10;98912.88;;;33.78;45.97
19526;BME280;9907;42.676;26.348;2023-07-13T07:14:35;98914.22;;;33.80;46.03
19526;BME280;9907;42.676;26.348;2023-07-13T07:17:01;98923.97;;;34.01;46.01
19526;BME280;9907;42.676;26.348;2023-07-13T07:19:28;98917.50;;;34.11;45.64
19526;BME280;9907;42.676;26.348;2023-07-13T07:21:54;98924.75;;;34.36;45.36
19526;BME280;9907;42.676;26.348;2023-07-13T07:24:20;98925.53;;;34.12;45.51
19526;BME280;9907;42.676;26.348;2023-07-13T07:26:45;98917.44;;;34.21;44.61
19526;BME280;9907;42.676;26.348;2023-07-13T07:29:10;98921.19;;;34.30;44.86
19526;BME280;9907;42.676;26.348;2023-07-13T07:31:36;98918.47;;;34.49;44.78
19526;BME280;9907;42.676;26.348;2023-07-13T07:34:02;98919.66;;;34.43;44.63
19526;BME280;9907;42.676;26.348;2023-07-13T07:36:28;98915.41;;;34.50;44.24
19526;BME280;9907;42.676;26.348;2023-07-13T07:38:53;98916.59;;;34.68;43.55
19526;BME280;9907;42.676;26.348;2023-07-13T07:41:19;98901.25;;;34.76;43.45
19526;BME280;9907;42.676;26.348;2023-07-13T07:43:44;98902.53;;;34.83;44.25
19526;BME280;9907;42.676;26.348;2023-07-13T07:46:10;98909.97;;;35.06;43.47
19526;BME280;9907;42.676;26.348;2023-07-13T07:48:35;98913.28;;;35.27;43.27
19526;BME280;9907;42.676;26.348;2023-07-13T07:51:01;98922.50;;;35.23;42.46
19526;BME280;9907;42.676;26.348;2023-07-13T07:53:27;98908.53;;;35.09;42.85
19526;BME280;9907;42.676;26.348;2023-07-13T07:55:52;98907.44;;;35.10;43.12
19526;BME280;9907;42.676;26.348;2023-07-13T07:58:18;98913.81;;;35.10;43.78
19526;BME280;9907;42.676;26.348;2023-07-13T08:00:43;98909.91;;;35.30;43.94
19526;BME280;9907;42.676;26.348;2023-07-13T08:03:09;98910.88;;;35.39;42.67
19526;BME280;9907;42.676;26.348;2023-07-13T08:05:35;98907.75;;;35.59;42.88
19526;BME280;9907;42.676;26.348;2023-07-13T08:08:01;98905.38;;;35.53;42.58
19526;BME280;9907;42.676;26.348;2023-07-13T08:10:27;98904.66;;;35.47;43.32
19526;BME280;9907;42.676;26.348;2023-07-13T08:12:52;98898.97;;;35.71;42.73
19526;BME280;9907;42.676;26.348;2023-07-13T08:15:18;98898.41;;;35.88;41.85
19526;BME280;9907;42.676;26.348;2023-07-13T08:17:47;98895.09;;;35.86;41.95
19526;BME280;9907;42.676;26.348;2023-07-13T08:20:13;98895.16;;;35.99;41.47
19526;BME280;9907;42.676;26.348;2023-07-13T08:22:38;98901.41;;;36.05;42.12
19526;BME280;9907;42.676;26.348;2023-07-13T08:25:04;98889.47;;;36.04;40.57
19526;BME280;9907;42.676;26.348;2023-07-13T08:27:30;98899.53;;;36.00;40.95
19526;BME280;9907;42.676;26.348;2023-07-13T08:29:55;98894.81;;;36.01;40.53
19526;BME280;9907;42.676;26.348;2023-07-13T08:32:22;98897.97;;;36.13;40.66
19526;BME280;9907;42.676;26.348;2023-07-13T08:34:48;98902.47;;;36.23;40.22
19526;BME280;9907;42.676;26.348;2023-07-13T08:37:14;98901.25;;;36.15;40.01
19526;BME280;9907;42.676;26.348;2023-07-13T08:39:40;98902.50;;;36.36;39.75
19526;BME280;9907;42.676;26.348;2023-07-13T08:42:33;98895.59;;;36.34;40.21
19526;BME280;9907;42.676;26.348;2023-07-13T08:48:04;98896.50;;;36.16;40.36
19526;BME280;9907;42.676;26.348;2023-07-13T08:50:34;98892.50;;;36.35;39.82
19526;BME280;9907;42.676;26.348;2023-07-13T08:53:02;98896.72;;;36.19;40.08
19526;BME280;9907;42.676;26.348;2023-07-13T08:55:33;98888.22;;;35.97;40.51
19526;BME280;9907;42.676;26.348;2023-07-13T08:58:15;98890.03;;;36.34;40.65
19526;BME280;9907;42.676;26.348;2023-07-13T09:06:31;98870.31;;;36.85;38.60
19526;BME280;9907;42.676;26.348;2023-07-13T09:09:15;98880.31;;;36.86;38.93
19526;BME280;9907;42.676;26.348;2023-07-13T09:11:49;98886.06;;;37.03;38.48
19526;BME280;9907;42.676;26.348;2023-07-13T09:16:53;98876.41;;;37.45;38.42
19526;BME280;9907;42.676;26.348;2023-07-13T09:19:28;98870.16;;;37.39;38.40
19526;BME280;9907;42.676;26.348;2023-07-13T09:21:55;98876.91;;;37.02;38.87
19526;BME280;9907;42.676;26.348;2023-07-13T09:27:11;98875.16;;;37.29;36.67
19526;BME280;9907;42.676;26.348;2023-07-13T09:29:41;98868.28;;;37.48;36.90
19526;BME280;9907;42.676;26.348;2023-07-13T09:32:12;98866.84;;;37.37;37.11
19526;BME280;9907;42.676;26.348;2023-07-13T09:34:40;98864.97;;;37.46;37.65
19526;BME280;9907;42.676;26.348;2023-07-13T09:37:05;98867.97;;;37.36;37.54
19526;BME280;9907;42.676;26.348;2023-07-13T09:39:39;98858.69;;;37.41;38.28
19526;BME280;9907;42.676;26.348;2023-07-13T09:42:18;98858.03;;;37.44;37.82
19526;BME280;9907;42.676;26.348;2023-07-13T09:44:54;98855.16;;;37.27;37.49
19526;BME280;9907;42.676;26.348;2023-07-13T09:47:25;98845.31;;;37.07;37.84
19526;BME280;9907;42.676;26.348;2023-07-13T09:52:24;98852.25;;;36.96;38.20
19526;BME280;9907;42.676;26.348;2023-07-13T09:54:51;98845.50;;;37.11;37.58
19526;BME280;9907;42.676;26.348;2023-07-13T09:57:22;98838.31;;;36.96;37.70
19526;BME280;9907;42.676;26.348;2023-07-13T09:59:51;98831.25;;;36.90;37.83
19526;BME280;9907;42.676;26.348;2023-07-13T10:02:29;98833.69;;;37.05;37.03
19526;BME280;9907;42.676;26.348;2023-07-13T10:04:59;98830.84;;;36.83;37.77
19526;BME280;9907;42.676;26.348;2023-07-13T10:07:26;98828.47;;;36.90;37.38
19526;BME280;9907;42.676;26.348;2023-07-13T10:09:53;98810.28;;;37.06;37.32
19526;BME280;9907;42.676;26.348;2023-07-13T10:12:19;98814.69;;;36.71;37.57
19526;BME280;9907;42.676;26.348;2023-07-13T10:14:45;98804.94;;;36.46;37.22
19526;BME280;9907;42.676;26.348;2023-07-13T10:17:16;98810.88;;;36.81;37.92
19526;BME280;9907;42.676;26.348;2023-07-13T10:19:43;98812.97;;;36.97;37.55
19526;BME280;9907;42.676;26.348;2023-07-13T10:22:27;98809.88;;;36.99;37.77
19526;BME280;9907;42.676;26.348;2023-07-13T10:24:55;98803.66;;;37.02;37.26
19526;BME280;9907;42.676;26.348;2023-07-13T10:27:26;98807.00;;;36.90;37.27
19526;BME280;9907;42.676;26.348;2023-07-13T10:32:37;98787.25;;;36.78;38.48
19526;BME280;9907;42.676;26.348;2023-07-13T10:35:03;98787.34;;;36.87;37.53
19526;BME280;9907;42.676;26.348;2023-07-13T10:37:51;98781.06;;;36.81;37.63
19526;BME280;9907;42.676;26.348;2023-07-13T10:40:27;98773.91;;;36.53;37.00
19526;BME280;9907;42.676;26.348;2023-07-13T10:42:58;98781.47;;;36.39;38.32
19526;BME280;9907;42.676;26.348;2023-07-13T10:45:26;98774.53;;;36.50;37.80
19526;BME280;9907;42.676;26.348;2023-07-13T10:47:54;98785.56;;;36.69;37.93
19526;BME280;9907;42.676;26.348;2023-07-13T10:50:25;98781.66;;;36.42;37.41
19526;BME280;9907;42.676;26.348;2023-07-13T10:52:54;98785.72;;;36.36;37.37
19526;BME280;9907;42.676;26.348;2023-07-13T10:58:18;98784.97;;;36.58;38.79
19526;BME280;9907;42.676;26.348;2023-07-13T11:00:49;98786.28;;;36.61;36.81
19526;BME280;9907;42.676;26.348;2023-07-13T11:03:19;98788.75;;;36.48;37.11
19526;BME280;9907;42.676;26.348;2023-07-13T11:05:51;98785.66;;;36.50;37.55
19526;BME280;9907;42.676;26.348;2023-07-13T11:08:38;98776.41;;;36.54;37.31
19526;BME280;9907;42.676;26.348;2023-07-13T11:18:53;98770.84;;;36.54;37.23
19526;BME280;9907;42.676;26.348;2023-07-13T11:21:32;98765.19;;;36.46;38.08
19526;BME280;9907;42.676;26.348;2023-07-13T11:24:16;98760.44;;;36.46;37.63
19526;BME280;9907;42.676;26.348;2023-07-13T11:26:50;98764.34;;;36.45;37.21
19526;BME280;9907;42.676;26.348;2023-07-13T11:31:59;98750.44;;;36.09;37.71
19526;BME280;9907;42.676;26.348;2023-07-13T11:34:37;98753.19;;;36.09;37.55
19526;BME280;9907;42.676;26.348;2023-07-13T11:37:03;98755.22;;;36.04;37.23
19526;BME280;9907;42.676;26.348;2023-07-13T11:39:32;98752.97;;;36.06;37.23
19526;BME280;9907;42.676;26.348;2023-07-13T11:42:03;98754.03;;;36.10;37.30
19526;BME280;9907;42.676;26.348;2023-07-13T11:44:31;98749.75;;;36.26;37.77
19526;BME280;9907;42.676;26.348;2023-07-13T11:46:59;98757.91;;;36.36;37.18
19526;BME280;9907;42.676;26.348;2023-07-13T11:49:31;98754.69;;;36.29;37.21
19526;BME280;9907;42.676;26.348;2023-07-13T11:51:57;98760.47;;;36.33;37.23
19526;BME280;9907;42.676;26.348;2023-07-13T11:54:32;98757.38;;;36.34;37.45
19526;BME280;9907;42.676;26.348;2023-07-13T11:57:01;98762.31;;;36.37;36.97
19526;BME280;9907;42.676;26.348;2023-07-13T11:59:32;98755.81;;;36.42;37.71
19526;BME280;9907;42.676;26.348;2023-07-13T12:01:58;98759.44;;;36.42;37.90
19526;BME280;9907;42.676;26.348;2023-07-13T12:04:28;98752.53;;;36.26;38.91
19526;BME280;9907;42.676;26.348;2023-07-13T12:07:18;98747.50;;;36.01;37.11
19526;BME280;9907;42.676;26.348;2023-07-13T12:09:44;98746.69;;;36.00;37.22
19526;BME280;9907;42.676;26.348;2023-07-13T12:12:14;98748.03;;;36.03;37.47
19526;BME280;9907;42.676;26.348;2023-07-13T12:14:40;98736.28;;;36.06;37.51
19526;BME280;9907;42.676;26.348;2023-07-13T12:17:16;98735.91;;;36.13;37.51
19526;BME280;9907;42.676;26.348;2023-07-13T12:19:43;98726.09;;;36.15;37.23
19526;BME280;9907;42.676;26.348;2023-07-13T12:22:12;98724.28;;;36.10;37.56
19526;BME280;9907;42.676;26.348;2023-07-13T12:24:39;98719.91;;;36.04;36.66
19526;BME280;9907;42.676;26.348;2023-07-13T12:27:05;98714.34;;;36.04;37.23
19526;BME280;9907;42.676;26.348;2023-07-13T12:29:32;98709.91;;;36.03;37.16
19526;BME280;9907;42.676;26.348;2023-07-13T12:31:58;98710.75;;;36.04;37.43
19526;BME280;9907;42.676;26.348;2023-07-13T12:34:26;98702.34;;;36.09;37.23
19526;BME280;9907;42.676;26.348;2023-07-13T12:36:54;98711.19;;;36.11;37.12
19526;BME280;9907;42.676;26.348;2023-07-13T12:41:52;98692.34;;;36.22;37.40
19526;BME280;9907;42.676;26.348;2023-07-13T12:44:29;98690.94;;;36.33;36.84
19526;BME280;9907;42.676;26.348;2023-07-13T12:47:06;98683.81;;;36.40;35.75
19526;BME280;9907;42.676;26.348;2023-07-13T12:49:41;98673.22;;;36.42;36.27
19526;BME280;9907;42.676;26.348;2023-07-13T12:52:20;98680.28;;;36.48;35.79
19526;BME280;9907;42.676;26.348;2023-07-13T12:54:56;98662.34;;;36.32;35.20
19526;BME280;9907;42.676;26.348;2023-07-13T12:57:25;98663.75;;;36.30;35.90
19526;BME280;9907;42.676;26.348;2023-07-13T12:59:55;98666.06;;;36.28;36.00
19526;BME280;9907;42.676;26.348;2023-07-13T13:02:32;98664.69;;;36.39;36.43
19526;BME280;9907;42.676;26.348;2023-07-13T13:04:58;98660.38;;;36.55;35.76
19526;BME280;9907;42.676;26.348;2023-07-13T13:07:25;98663.88;;;36.61;35.39
19526;BME280;9907;42.676;26.348;2023-07-13T13:09:51;98665.94;;;36.55;35.84
19526;BME280;9907;42.676;26.348;2023-07-13T13:12:17;98657.00;;;36.44;35.69
19526;BME280;9907;42.676;26.348;2023-07-13T13:14:43;98644.75;;;36.45;35.94
19526;BME280;9907;42.676;26.348;2023-07-13T13:17:19;98655.88;;;36.45;35.92
19526;BME280;9907;42.676;26.348;2023-07-13T13:19:45;98659.31;;;36.42;35.64
19526;BME280;9907;42.676;26.348;2023-07-13T13:22:11;98653.00;;;36.50;35.33
19526;BME280;9907;42.676;26.348;2023-07-13T13:24:37;98651.75;;;36.56;35.31
19526;BME280;9907;42.676;26.348;2023-07-13T13:27:04;98642.88;;;36.54;35.78
19526;BME280;9907;42.676;26.348;2023-07-13T13:29:39;98640.41;;;36.53;35.17
19526;BME280;9907;42.676;26.348;2023-07-13T13:32:09;98632.88;;;36.53;36.17
19526;BME280;9907;42.676;26.348;2023-07-13T13:34:35;98643.59;;;36.60;36.70
19526;BME280;9907;42.676;26.348;2023-07-13T13:37:01;98642.06;;;36.54;37.09
19526;BME280;9907;42.676;26.348;2023-07-13T13:39:34;98639.25;;;36.32;38.12